Time;durP1;ratioP1;P1;durP2;ratioP2;P2;SDS_P1;SDS_P2;PMS_P1;PMS_P2;Temp;Humidity;BMP_temperature;BMP_pressure;BME280_temperature;BME280_humidity;BME280_pressure;Samples;Min_cycle;Max_cycle;Signal;HPM_P1;HPM_P2
2022/08/17 00:01:30;;;;;;;15.45;8.90;;;;;;;18.38;76.29;97264.44;10253241;28;20069;-56
2022/08/17 00:06:30;;;;;;;14.27;8.98;;;;;;;18.33;76.93;97265.56;10254674;28;20089;-56
2022/08/17 00:11:35;;;;;;;12.25;9.27;;;;;;;18.26;77.44;97264.94;10253473;28;20504;-56
2022/08/17 00:16:48;;;;;;;11.77;8.63;;;;;;;18.18;78.82;97273.13;10253781;28;20081;-56
2022/08/17 00:21:49;;;;;;;12.88;9.27;;;;;;;18.15;79.04;97267.13;10253193;28;20061;-56
2022/08/17 00:26:48;;;;;;;13.95;9.68;;;;;;;18.08;79.55;97274.41;10246978;28;20113;-56
2022/08/17 00:31:48;;;;;;;17.08;9.85;;;;;;;18.03;79.87;97263.22;10252687;28;20034;-56
2022/08/17 00:36:47;;;;;;;18.90;9.40;;;;;;;17.96;79.97;97269.59;10253602;28;20074;-56
2022/08/17 00:41:46;;;;;;;14.10;9.25;;;;;;;17.93;79.75;97253.97;10252266;28;20034;-56
2022/08/17 00:46:46;;;;;;;15.88;10.40;;;;;;;17.90;80.50;97256.75;10252469;28;20078;-56
2022/08/17 00:51:53;;;;;;;13.63;9.95;;;;;;;17.83;80.54;97260.50;10252828;28;20511;-56
2022/08/17 00:57:23;;;;;;;14.00;10.15;;;;;;;17.75;80.43;97259.00;10245555;28;20108;-56
2022/08/17 01:02:23;;;;;;;12.80;9.57;;;;;;;17.66;81.11;97259.34;10251248;28;20132;-56
2022/08/17 01:07:24;;;;;;;15.73;10.60;;;;;;;17.61;81.06;97266.50;10251024;28;20062;-56
2022/08/17 01:12:23;;;;;;;15.45;10.45;;;;;;;17.56;81.53;97258.81;10249947;28;20066;-56
2022/08/17 01:17:22;;;;;;;14.57;10.55;;;;;;;17.51;81.89;97262.53;10251772;28;20132;-56
2022/08/17 01:22:25;;;;;;;13.40;9.93;;;;;;;17.42;81.97;97245.34;10251119;28;20022;-56
2022/08/17 01:27:25;;;;;;;14.00;10.40;;;;;;;17.29;81.81;97229.22;10244427;28;20069;-56
2022/08/17 01:32:26;;;;;;;15.70;9.63;;;;;;;17.36;81.98;97240.34;10251596;28;20078;-56
2022/08/17 01:37:37;;;;;;;14.73;9.82;;;;;;;17.29;82.64;97260.69;10250001;28;20092;-56
2022/08/17 01:42:45;;;;;;;16.40;9.85;;;;;;;17.27;82.99;97251.16;10250443;28;20095;-56
2022/08/17 01:47:44;;;;;;;16.10;9.88;;;;;;;17.26;83.15;97250.31;10249787;28;20070;-56
2022/08/17 01:52:45;;;;;;;18.15;11.77;;;;;;;17.21;83.19;97246.97;10249961;28;20427;-56
2022/08/17 01:57:47;;;;;;;17.63;11.20;;;;;;;17.02;84.44;97251.16;10249148;28;20510;-56
2022/08/17 02:02:46;;;;;;;16.92;11.55;;;;;;;16.98;84.32;97253.06;10249492;28;20089;-56
2022/08/17 02:07:45;;;;;;;16.73;11.80;;;;;;;16.95;84.41;97260.16;10249533;28;20069;-56
2022/08/17 02:12:44;;;;;;;;;;;;;;;16.90;84.62;97250.69;10249891;28;20144;-56
2022/08/17 02:17:43;;;;;;;16.20;11.47;;;;;;;16.77;84.94;97245.88;10248586;28;20436;-56
2022/08/17 02:22:45;;;;;;;14.95;11.30;;;;;;;16.72;85.41;97260.00;10249156;28;20065;-56
2022/08/17 02:27:44;;;;;;;19.35;11.52;;;;;;;16.60;85.87;97262.16;10248010;28;20487;-56
2022/08/17 02:32:43;;;;;;;;;;;;;;;16.52;85.89;97260.66;10249034;28;20479;-56
2022/08/17 02:37:42;;;;;;;18.00;11.73;;;;;;;16.43;86.21;97263.56;10231021;28;19924;-56
2022/08/17 02:42:41;;;;;;;;;;;;;;;16.38;86.37;97255.00;10209949;28;20065;-56
2022/08/17 02:47:41;;;;;;;17.90;11.73;;;;;;;16.35;86.52;97265.59;10208812;28;19960;-56
2022/08/17 02:52:42;;;;;;;19.88;12.05;;;;;;;16.24;86.86;97258.06;10208841;28;20992;-56
2022/08/17 02:57:42;;;;;;;20.92;13.10;;;;;;;16.16;87.06;97267.94;10208333;28;20073;-56
2022/08/17 03:02:43;;;;;;;20.50;12.93;;;;;;;16.11;87.07;97271.59;10207939;28;20066;-56
2022/08/17 03:07:42;;;;;;;16.75;11.75;;;;;;;15.99;87.23;97268.44;10209278;28;20074;-56
2022/08/17 03:12:42;;;;;;;;;;;;;;;15.98;87.48;97277.19;10208032;28;20082;-56
2022/08/17 03:17:41;;;;;;;22.80;17.60;;;;;;;15.91;87.69;97285.28;10208983;28;19953;-56
2022/08/17 03:22:43;;;;;;;22.13;15.95;;;;;;;15.89;87.95;97293.19;10208138;28;20524;-56
2022/08/17 03:27:42;;;;;;;20.30;15.20;;;;;;;15.83;87.96;97285.50;10224205;28;20069;-56
2022/08/17 03:32:43;;;;;;;;;;;;;;;15.91;87.74;97303.63;10247651;28;20038;-57
2022/08/17 03:37:41;;;;;;;20.60;15.50;;;;;;;15.92;87.66;97307.94;10251377;28;19973;-57
2022/08/17 03:42:40;;;;;;;;;;;;;;;15.93;87.67;97300.03;10255433;28;20038;-56
2022/08/17 03:58:14;;;;;;;25.15;12.90;;;;;;;15.98;87.78;97302.53;10253901;28;20066;-56
2022/08/17 04:03:13;;;;;;;;;;;;;;;15.80;88.89;97319.63;10254632;28;20038;-56
2022/08/17 04:08:12;;;;;;;19.23;13.03;;;;;;;15.79;88.55;97310.06;10253449;28;20425;-56
2022/08/17 04:13:11;;;;;;;;;;;;;;;15.88;88.77;97328.13;10253007;28;20508;-56
2022/08/17 04:18:10;;;;;;;17.27;12.77;;;;;;;16.00;88.58;97319.03;10253366;28;19916;-56
2022/08/17 04:23:11;;;;;;;;;;;;;;;16.14;88.25;97321.22;10254648;28;20104;-56
2022/08/17 04:28:10;;;;;;;20.00;11.90;;;;;;;16.24;88.07;97314.81;10251536;28;19952;-56
2022/08/17 04:33:15;;;;;;;19.80;12.57;;;;;;;16.39;88.00;97319.56;10246570;28;20114;-56
2022/08/17 04:38:17;;;;;;;22.85;12.50;;;;;;;16.49;87.61;97321.00;10246032;28;20341;-56
2022/08/17 04:43:20;;;;;;;21.40;13.32;;;;;;;16.56;87.43;97328.66;10252509;28;20440;-56
2022/08/17 04:48:19;;;;;;;19.38;13.05;;;;;;;16.65;87.00;97338.84;10250789;28;20153;-56
2022/08/17 04:53:18;;;;;;;21.35;12.02;;;;;;;16.70;86.75;97326.47;10252122;28;20407;-56
2022/08/17 04:58:18;;;;;;;16.60;10.85;;;;;;;16.72;86.69;97327.25;10251655;28;20078;-56
2022/08/17 05:03:17;;;;;;;17.42;12.65;;;;;;;16.79;86.50;97330.53;10251336;28;20077;-56
2022/08/17 05:08:18;;;;;;;18.60;13.10;;;;;;;16.94;86.37;97337.94;10271581;28;20129;-56
2022/08/17 05:13:23;;;;;;;19.42;12.60;;;;;;;17.04;85.94;97339.34;10290698;28;20491;-56
2022/08/17 05:18:23;;;;;;;21.63;13.90;;;;;;;17.12;85.98;97337.31;10289944;28;20481;-56
2022/08/17 05:23:24;;;;;;;21.23;16.55;;;;;;;17.33;85.41;97338.34;10289409;28;20054;-56
2022/08/17 05:28:28;;;;;;;24.60;17.98;;;;;;;17.56;84.61;97352.41;10288706;28;20488;-56
2022/08/17 05:33:31;;;;;;;25.15;14.05;;;;;;;17.80;83.78;97349.84;10285897;28;20049;-57
2022/08/17 05:38:30;;;;;;;17.40;13.10;;;;;;;18.00;82.86;97357.00;10279451;28;20061;-56
2022/08/17 05:43:31;;;;;;;17.52;12.93;;;;;;;18.24;81.66;97360.47;10274428;28;20065;-56
2022/08/17 05:48:48;;;;;;;18.42;13.68;;;;;;;18.49;80.88;97350.72;10288844;28;20073;-56
2022/08/17 05:53:50;;;;;;;18.23;12.95;;;;;;;18.75;80.73;97357.59;10286266;28;20065;-57
2022/08/17 05:58:56;;;;;;;16.52;11.75;;;;;;;18.95;78.82;97354.19;10284856;28;20096;-57
2022/08/17 06:04:03;;;;;;;17.45;11.95;;;;;;;19.15;77.16;97358.59;10283814;28;20515;-57
2022/08/17 06:09:27;;;;;;;15.65;11.15;;;;;;;19.35;76.23;97352.50;10284906;28;20073;-57
2022/08/17 06:15:13;;;;;;;16.40;11.43;;;;;;;19.64;76.27;97351.25;10277263;28;20381;-57
2022/08/17 06:20:14;;;;;;;12.52;10.18;;;;;;;19.87;74.99;97349.41;10251091;28;20125;-57
2022/08/17 06:25:22;;;;;;;12.43;9.63;;;;;;;20.02;72.76;97343.41;10266148;28;20354;-57
2022/08/17 06:30:24;;;;;;;16.55;10.68;;;;;;;20.27;70.99;97332.59;10270061;28;20065;-57
2022/08/17 06:35:43;;;;;;;14.70;10.25;;;;;;;20.54;68.82;97334.91;10286454;28;20070;-57
2022/08/17 06:41:03;;;;;;;15.73;10.23;;;;;;;20.74;67.88;97326.03;10274368;28;20076;-57
2022/08/17 06:46:10;;;;;;;15.68;9.70;;;;;;;21.03;68.63;97329.88;10288698;28;20058;-57
2022/08/17 06:51:33;;;;;;;11.30;8.40;;;;;;;21.34;67.09;97326.56;10288610;28;20526;-57
2022/08/17 06:56:56;;;;;;;12.50;9.82;;;;;;;21.61;65.38;97330.50;10274036;28;20058;-57
2022/08/17 07:01:57;;;;;;;14.32;8.27;;;;;;;21.86;63.56;97337.97;10282538;28;20054;-57
2022/08/17 07:08:00;;;;;;;12.85;9.40;;;;;;;22.13;63.75;97320.69;10288613;28;20064;-56
2022/08/17 07:12:25;;;;;;;10.65;8.65;;;;;;;22.39;62.36;97313.09;10262947;28;20061;-57
2022/08/17 07:17:26;;;;;;;14.85;9.27;;;;;;;22.58;60.42;97327.00;10295660;28;20448;-56
2022/08/17 07:22:46;;;;;;;12.32;8.70;;;;;;;22.91;59.56;97325.19;10291466;28;20061;-57
2022/08/17 07:27:49;;;;;;;12.38;8.45;;;;;;;23.22;58.60;97317.16;10297883;28;20072;-57
2022/08/17 07:33:13;;;;;;;11.98;8.63;;;;;;;23.51;57.77;97311.09;10291104;28;20558;-57
2022/08/17 07:38:21;;;;;;;13.00;8.55;;;;;;;23.82;57.84;97299.47;10264600;28;20528;-57
2022/08/17 07:43:25;;;;;;;15.52;8.88;;;;;;;24.10;56.13;97298.59;10263532;28;20485;-57
2022/08/17 07:48:25;;;;;;;10.88;8.50;;;;;;;24.51;54.80;97308.41;10310265;28;20068;-57
2022/08/17 07:53:25;;;;;;;12.02;8.13;;;;;;;24.79;52.54;97302.13;10295140;28;20495;-57
2022/08/17 07:58:25;;;;;;;10.55;7.50;;;;;;;25.13;51.93;97299.94;10281526;28;20484;-57
2022/08/17 08:03:27;;;;;;;11.60;7.32;;;;;;;25.52;51.13;97300.81;10280259;28;20057;-57
2022/08/17 08:08:31;;;;;;;11.55;6.13;;;;;;;25.84;47.73;97303.94;10274306;28;20068;-57
2022/08/17 08:13:31;;;;;;;9.15;6.13;;;;;;;26.19;47.00;97284.63;10263399;28;20106;-58
2022/08/17 08:18:34;;;;;;;7.65;5.50;;;;;;;26.40;44.21;97287.56;10287408;28;20092;-58
2022/08/17 08:23:56;;;;;;;9.15;5.43;;;;;;;26.60;43.32;97288.75;10292878;28;20105;-57
2022/08/17 08:29:43;;;;;;;11.18;5.65;;;;;;;26.86;43.03;97275.38;10274279;28;20065;-56
2022/08/17 08:35:00;;;;;;;10.60;5.82;;;;;;;27.09;41.35;97284.28;10289640;28;20072;-57
2022/08/17 08:40:06;;;;;;;7.68;5.80;;;;;;;27.27;40.50;97272.25;10266020;28;20069;-57
2022/08/17 08:45:18;;;;;;;6.28;4.72;;;;;;;27.47;40.24;97275.19;10265864;28;20487;-57
2022/08/17 08:50:23;;;;;;;6.72;5.28;;;;;;;27.61;40.22;97251.88;10291165;28;20081;-57
2022/08/17 08:55:47;;;;;;;6.82;5.25;;;;;;;27.99;39.36;97271.13;10292134;28;20081;-55
2022/08/17 09:00:49;;;;;;;8.95;5.00;;;;;;;28.16;38.69;97265.31;10293978;28;20054;-55
2022/08/17 09:06:08;;;;;;;6.82;5.40;;;;;;;28.28;36.25;97260.81;10292204;28;20049;-55
2022/08/17 09:11:12;;;;;;;7.05;5.07;;;;;;;28.48;36.56;97259.19;10282840;28;20571;-58
2022/08/17 09:16:29;;;;;;;8.15;5.40;;;;;;;28.74;36.58;97253.56;10266705;28;20480;-58
2022/08/17 09:21:40;;;;;;;6.28;4.25;;;;;;;28.95;34.21;97262.44;10293062;28;20561;-56
2022/08/17 09:27:02;;;;;;;8.70;4.88;;;;;;;29.36;35.16;97252.78;10289319;28;20061;-55
2022/08/17 09:32:08;;;;;;;7.03;4.80;;;;;;;29.58;34.25;97266.97;10286669;28;20605;-57
2022/08/17 09:37:26;;;;;;;6.07;4.55;;;;;;;29.78;33.67;97250.03;10284083;28;20125;-56
2022/08/17 09:42:31;;;;;;;7.50;4.33;;;;;;;30.12;33.26;97252.47;10261959;28;20065;-56
2022/08/17 09:47:44;;;;;;;7.07;4.68;;;;;;;30.39;32.32;97248.28;10288476;28;20065;-57
2022/08/17 09:52:43;;;;;;;7.38;4.75;;;;;;;30.52;32.30;97243.56;10288483;28;20070;-58
2022/08/17 09:58:00;;;;;;;8.10;5.07;;;;;;;30.81;31.87;97243.56;10288844;28;20041;-57
2022/08/17 10:03:21;;;;;;;11.20;4.60;;;;;;;30.93;31.80;97236.22;10288483;28;20413;-58
2022/08/17 10:08:41;;;;;;;5.93;4.63;;;;;;;30.63;32.70;97247.91;10249626;28;20061;-57
2022/08/17 10:13:55;;;;;;;7.03;4.72;;;;;;;30.31;32.99;97240.94;10249190;28;20070;-58
2022/08/17 10:19:20;;;;;;;5.90;4.70;;;;;;;30.30;33.02;97237.44;10248553;28;20503;-57
2022/08/17 10:30:03;;;;;;;6.72;4.63;;;;;;;30.98;32.54;97225.94;10251347;28;20054;-56
2022/08/17 10:35:19;;;;;;;7.15;4.72;;;;;;;31.06;31.33;97230.63;10251543;28;20841;-56
2022/08/17 10:40:26;;;;;;;5.28;4.32;;;;;;;31.32;31.24;97220.97;10251152;28;20469;-56
2022/08/17 10:45:43;;;;;;;9.10;4.47;;;;;;;31.25;31.57;97235.09;10254265;28;20066;-57
2022/08/17 10:50:46;;;;;;;4.40;3.75;;;;;;;30.67;31.71;97226.06;10259609;28;20061;-57
2022/08/17 10:56:10;;;;;;;4.40;3.75;;;;;;;30.41;32.17;97222.25;10259295;28;20066;-57
2022/08/17 11:01:11;;;;;;;5.75;4.00;;;;;;;30.54;32.07;97222.84;10258955;28;20054;-57
2022/08/17 11:06:22;;;;;;;6.57;4.47;;;;;;;30.86;31.84;97203.78;10259480;28;20073;-56
2022/08/17 11:11:34;;;;;;;5.38;4.05;;;;;;;30.95;30.43;97202.09;10258827;28;20069;-55
2022/08/17 11:16:55;;;;;;;7.25;4.45;;;;;;;31.17;30.39;97207.19;10259246;28;20070;-56
2022/08/17 11:22:19;;;;;;;5.45;3.95;;;;;;;31.55;30.04;97186.63;10257739;28;20461;-57
2022/08/17 11:27:24;;;;;;;4.93;3.88;;;;;;;31.65;29.12;97183.06;10257246;28;20061;-57
2022/08/17 11:32:44;;;;;;;9.27;6.47;;;;;;;31.88;29.14;97188.91;10257586;28;20073;-57
2022/08/17 11:37:48;;;;;;;10.73;5.40;;;;;;;31.94;29.46;97188.28;10256427;28;20070;-57
2022/08/17 11:43:09;;;;;;;6.00;4.50;;;;;;;31.58;29.68;97186.34;10257310;28;20065;-56
2022/08/17 11:53:38;;;;;;;7.50;3.63;;;;;;;31.45;29.79;97203.72;10256226;28;20066;-56
2022/08/17 11:58:42;;;;;;;5.07;3.38;;;;;;;31.10;29.30;97206.06;10254251;28;20504;-57
2022/08/17 12:03:43;;;;;;;8.00;3.83;;;;;;;31.09;30.03;97215.09;10255754;28;20143;-57
2022/08/17 12:08:50;;;;;;;5.78;4.20;;;;;;;30.96;29.41;97193.97;10253816;28;20326;-56
2022/08/17 12:13:54;;;;;;;8.40;4.18;;;;;;;30.97;29.37;97189.44;10249679;28;20069;-57
2022/08/17 12:18:58;;;;;;;6.97;4.05;;;;;;;31.19;29.40;97188.25;10249829;28;20078;-58
2022/08/17 12:23:57;;;;;;;5.25;3.65;;;;;;;31.23;28.97;97194.19;10250365;28;20066;-56
2022/08/17 12:29:00;;;;;;;7.25;3.53;;;;;;;31.34;29.06;97185.97;10275688;28;20111;-57
2022/08/17 12:34:02;;;;;;;6.68;3.80;;;;;;;31.28;28.53;97186.56;10292977;28;20495;-58
2022/08/17 12:39:05;;;;;;;7.68;3.83;;;;;;;31.05;28.42;97194.06;10276912;28;20062;-56
2022/08/17 12:44:14;;;;;;;6.32;3.72;;;;;;;30.79;29.03;97177.72;10253303;28;20070;-56
2022/08/17 12:49:34;;;;;;;5.93;4.30;;;;;;;30.52;29.68;97173.94;10252177;28;20062;-58
2022/08/17 12:54:54;;;;;;;6.82;3.90;;;;;;;30.57;29.90;97177.03;10252995;28;20070;-57
2022/08/17 13:00:01;;;;;;;6.88;3.53;;;;;;;30.28;29.58;97174.28;10291464;28;20496;-57
2022/08/17 13:05:00;;;;;;;6.15;4.00;;;;;;;30.37;29.42;97176.13;10291961;28;20530;-56
2022/08/17 13:10:00;;;;;;;7.97;3.92;;;;;;;30.73;29.54;97169.28;10291832;28;20077;-55
2022/08/17 13:14:59;;;;;;;5.55;3.95;;;;;;;31.21;28.82;97164.00;10291210;28;20141;-56
2022/08/17 13:19:58;;;;;;;5.47;3.80;;;;;;;31.59;28.42;97163.03;10291131;28;20080;-56
2022/08/17 13:25:04;;;;;;;7.13;4.60;;;;;;;31.92;30.26;97172.34;10291111;28;20029;-56
2022/08/17 13:30:10;;;;;;;7.43;4.60;;;;;;;32.06;29.23;97180.91;10290763;28;20069;-56
2022/08/17 13:35:27;;;;;;;6.00;3.97;;;;;;;32.14;28.68;97170.28;10290722;28;20077;-56
2022/08/17 13:40:42;;;;;;;7.07;3.97;;;;;;;32.46;28.04;97182.31;10265193;28;20492;-56
2022/08/17 13:45:50;;;;;;;5.88;4.30;;;;;;;32.49;28.03;97156.00;10250465;28;20058;-56
2022/08/17 13:50:58;;;;;;;7.72;4.40;;;;;;;32.67;27.58;97169.47;10250219;28;20081;-57
2022/08/17 13:56:06;;;;;;;10.45;4.50;;;;;;;32.95;29.27;97166.66;10249765;28;20078;-57
2022/08/17 14:01:31;;;;;;;7.65;3.90;;;;;;;33.00;27.43;97169.75;10249637;28;20065;-56
2022/08/17 14:06:43;;;;;;;8.88;4.60;;;;;;;33.04;28.26;97161.19;10249113;28;20053;-57
2022/08/17 14:11:43;;;;;;;7.10;3.97;;;;;;;33.06;27.04;97159.19;10248770;28;20080;-56
2022/08/17 14:16:42;;;;;;;6.15;4.20;;;;;;;32.68;25.55;97149.66;10250098;28;20088;-57
2022/08/17 14:21:45;;;;;;;4.90;3.53;;;;;;;32.59;25.99;97145.22;10248521;28;20062;-57
2022/08/17 14:26:44;;;;;;;5.85;4.00;;;;;;;32.47;26.55;97149.09;10249256;28;20080;-57
2022/08/17 14:31:43;;;;;;;6.38;4.05;;;;;;;32.42;26.36;97141.50;10260138;28;20121;-56
2022/08/17 14:36:42;;;;;;;7.18;4.00;;;;;;;32.37;25.99;97133.91;10288735;28;20057;-57
2022/08/17 14:41:41;;;;;;;6.50;4.28;;;;;;;32.54;26.92;97152.88;10253934;28;20070;-58
2022/08/17 14:46:43;;;;;;;7.32;4.80;;;;;;;32.76;27.23;97155.13;10248395;28;20463;-58
2022/08/17 14:51:42;;;;;;;6.93;4.45;;;;;;;32.80;26.67;97151.09;10250120;28;20465;-58
2022/08/17 14:56:42;;;;;;;6.43;4.20;;;;;;;32.47;26.64;97154.47;10251159;28;20511;-57
2022/08/17 15:01:42;;;;;;;7.60;4.55;;;;;;;32.23;26.79;97139.81;10250064;28;20050;-57
2022/08/17 15:06:42;;;;;;;8.77;5.35;;;;;;;32.38;26.67;97154.38;10247273;28;20062;-56
2022/08/17 15:11:41;;;;;;;7.47;4.70;;;;;;;32.19;27.07;97138.44;10282405;28;20065;-56
2022/08/17 15:16:40;;;;;;;9.45;4.53;;;;;;;32.11;27.50;97157.16;10284205;28;20121;-58
2022/08/17 15:21:40;;;;;;;7.75;4.72;;;;;;;32.17;27.93;97159.22;10286769;28;20033;-58
2022/08/17 15:26:39;;;;;;;7.13;4.65;;;;;;;32.21;27.79;97160.59;10286874;28;20072;-57
2022/08/17 15:31:38;;;;;;;8.15;4.53;;;;;;;32.12;28.50;97157.00;10288139;28;20073;-57
2022/08/17 15:36:38;;;;;;;6.10;4.50;;;;;;;32.12;28.99;97156.16;10291495;28;20080;-56
2022/08/17 15:41:37;;;;;;;10.68;4.78;;;;;;;32.07;28.94;97158.44;10261182;28;20086;-57
2022/08/17 15:46:36;;;;;;;6.15;5.05;;;;;;;31.86;28.39;97159.53;10253164;28;20148;-57
2022/08/17 15:51:35;;;;;;;7.53;4.10;;;;;;;31.58;27.81;97154.16;10253831;28;20034;-56
2022/08/17 15:56:34;;;;;;;6.35;4.22;;;;;;;31.39;27.89;97167.63;10253995;28;20074;-56
2022/08/17 16:01:33;;;;;;;8.55;4.28;;;;;;;31.04;28.51;97162.91;10252714;28;20053;-56
2022/08/17 16:06:32;;;;;;;6.03;4.10;;;;;;;30.74;28.00;97168.28;10253054;28;20026;-57
2022/08/17 16:11:31;;;;;;;8.93;4.22;;;;;;;30.69;28.59;97159.81;10288412;28;20081;-57
2022/08/17 16:16:30;;;;;;;7.57;4.10;;;;;;;30.60;28.92;97176.75;10293425;28;20121;-57
2022/08/17 16:21:29;;;;;;;5.75;4.05;;;;;;;30.43;29.46;97172.09;10291981;28;20037;-58
2022/08/17 16:26:29;;;;;;;8.15;4.72;;;;;;;30.30;29.55;97175.88;10293169;28;20141;-57
2022/08/17 16:31:29;;;;;;;6.05;4.38;;;;;;;30.17;29.20;97172.59;10292633;28;20068;-57
2022/08/17 16:36:28;;;;;;;5.63;4.97;;;;;;;30.23;31.22;97181.91;10291388;28;20077;-57
2022/08/17 16:41:43;;;;;;;7.03;5.53;;;;;;;30.16;32.31;97184.28;10260429;28;20065;-57
2022/08/17 16:46:44;;;;;;;8.90;6.32;;;;;;;29.95;32.88;97189.72;10251658;28;20069;-57
2022/08/17 16:51:44;;;;;;;7.00;5.72;;;;;;;29.76;33.64;97187.81;10252514;28;20061;-57
2022/08/17 16:56:43;;;;;;;7.20;5.15;;;;;;;29.47;34.40;97196.56;10252097;28;20504;-57
2022/08/17 17:01:42;;;;;;;7.03;5.40;;;;;;;29.24;35.10;97205.69;10251716;28;20117;-57
2022/08/17 17:07:05;;;;;;;12.13;5.72;;;;;;;28.92;36.07;97211.09;10252572;28;20562;-57
2022/08/17 17:12:11;;;;;;;9.82;5.35;;;;;;;28.58;37.18;97211.22;10251346;28;20069;-57
2022/08/17 17:17:26;;;;;;;12.63;5.60;;;;;;;28.22;37.71;97213.25;10251183;28;20061;-57
2022/08/17 17:22:47;;;;;;;12.45;6.32;;;;;;;27.90;38.80;97231.88;10251219;28;20072;-56
2022/08/17 17:28:27;;;;;;;12.00;6.28;;;;;;;27.56;39.49;97240.69;10251317;28;20500;-56
2022/08/17 17:33:39;;;;;;;10.70;5.90;;;;;;;27.23;39.73;97248.63;10250315;28;20064;-57
2022/08/17 17:38:44;;;;;;;14.43;6.95;;;;;;;26.91;40.96;97257.22;10266481;28;20080;-56
2022/08/17 17:43:43;;;;;;;8.52;6.07;;;;;;;26.58;41.51;97261.41;10250816;28;20500;-56
2022/08/17 17:48:42;;;;;;;13.93;7.10;;;;;;;26.32;41.72;97265.97;10249816;28;20069;-56
2022/08/17 17:53:49;;;;;;;10.82;6.65;;;;;;;26.03;42.17;97282.22;10249153;28;20117;-56
2022/08/17 17:58:56;;;;;;;8.30;6.75;;;;;;;25.76;43.15;97279.69;10250016;28;20073;-56
2022/08/17 18:04:20;;;;;;;8.30;6.43;;;;;;;25.51;43.64;97294.66;10250113;28;20070;-56
2022/08/17 18:09:22;;;;;;;9.68;6.72;;;;;;;25.31;43.89;97297.81;10266921;28;20061;-56
2022/08/17 18:14:21;;;;;;;10.52;6.50;;;;;;;25.11;44.16;97300.03;10289083;28;20049;-56
2022/08/17 18:19:23;;;;;;;9.45;6.22;;;;;;;24.94;44.89;97307.41;10290057;28;20050;-56
2022/08/17 18:24:35;;;;;;;10.10;6.70;;;;;;;24.73;45.15;97307.88;10289202;28;20092;-56
2022/08/17 18:29:43;;;;;;;8.85;5.88;;;;;;;24.54;45.85;97313.50;10289408;28;20077;-57
2022/08/17 18:34:48;;;;;;;9.35;6.18;;;;;;;24.32;46.56;97319.34;10288803;28;20530;-56
2022/08/17 18:39:47;;;;;;;9.50;6.30;;;;;;;24.12;46.87;97317.06;10289173;28;20068;-57
2022/08/17 18:44:46;;;;;;;7.70;6.10;;;;;;;23.96;47.28;97328.63;10288785;28;20100;-57
2022/08/17 18:49:55;;;;;;;10.20;7.22;;;;;;;23.81;47.63;97329.56;10288923;28;20065;-55
2022/08/17 18:54:59;;;;;;;11.95;7.82;;;;;;;23.63;47.74;97337.69;10288527;28;20074;-56
2022/08/17 18:59:59;;;;;;;9.20;6.68;;;;;;;23.50;48.06;97336.72;10289095;28;20080;-56
2022/08/17 19:05:35;;;;;;;7.85;6.05;;;;;;;23.32;48.70;97340.44;10289431;28;20076;-55
2022/08/17 19:10:37;;;;;;;7.63;6.05;;;;;;;23.11;48.84;97331.94;10295722;28;20057;-56
2022/08/17 19:15:41;;;;;;;8.10;5.95;;;;;;;23.09;48.92;97340.00;10296934;28;20080;-56
2022/08/17 19:21:24;;;;;;;10.52;6.78;;;;;;;23.06;48.98;97350.75;10296542;28;20065;-56
2022/08/17 19:26:28;;;;;;;13.65;9.20;;;;;;;23.02;49.25;97343.91;10290417;28;20065;-56
2022/08/17 19:31:29;;;;;;;18.33;11.93;;;;;;;22.97;49.67;97344.19;10295531;28;20083;-56
2022/08/17 19:36:36;;;;;;;14.50;8.07;;;;;;;22.92;50.24;97348.03;10295268;28;20090;-57
2022/08/17 19:41:57;;;;;;;12.52;8.63;;;;;;;22.84;51.02;97358.22;10281009;28;20068;-56
2022/08/17 19:47:05;;;;;;;11.10;7.90;;;;;;;22.71;52.40;97350.94;10300400;28;20462;-56
2022/08/17 19:52:19;;;;;;;12.80;8.20;;;;;;;22.59;52.85;97343.69;10292286;28;20153;-55
2022/08/17 19:57:47;;;;;;;12.45;8.27;;;;;;;22.56;53.45;97351.81;10291606;28;20057;-56
2022/08/17 20:03:00;;;;;;;17.23;8.00;;;;;;;22.33;54.59;97335.44;10292250;28;20467;-55
2022/08/17 20:08:23;;;;;;;12.50;7.13;;;;;;;22.39;55.63;97366.81;10289789;28;20678;-55
2022/08/17 20:13:24;;;;;;;14.60;9.13;;;;;;;22.29;56.84;97365.59;10289458;28;20065;-56
2022/08/17 20:18:33;;;;;;;13.18;7.90;;;;;;;22.18;57.32;97370.63;10290809;28;20085;-55
2022/08/17 20:23:32;;;;;;;;;;;;;;;22.10;58.21;97383.41;10293738;28;20081;-55
2022/08/17 20:28:34;;;;;;;19.15;10.55;;;;;;;21.96;58.27;97371.72;10293030;28;19913;-55
2022/08/17 20:33:36;;;;;;;15.40;8.98;;;;;;;21.85;59.31;97363.56;10292744;28;20881;-56
2022/08/17 20:38:41;;;;;;;14.35;9.20;;;;;;;21.72;60.49;97368.59;10291360;28;20077;-55
2022/08/17 20:43:45;;;;;;;12.75;9.32;;;;;;;21.55;61.27;97381.84;10290774;28;20484;-55
2022/08/17 20:48:49;;;;;;;13.85;8.63;;;;;;;21.41;62.13;97381.69;10292780;28;20076;-55
2022/08/17 20:53:48;;;;;;;10.32;9.00;;;;;;;21.30;62.26;97382.22;10292989;28;20069;-55
2022/08/17 20:58:47;;;;;;;13.95;9.80;;;;;;;21.21;62.77;97383.53;10290840;28;20026;-55
2022/08/17 21:03:49;;;;;;;13.23;8.85;;;;;;;21.04;64.04;97381.69;10291351;28;20065;-55
2022/08/17 21:08:53;;;;;;;11.82;8.73;;;;;;;20.98;63.81;97382.00;10289677;28;20069;-56
2022/08/17 21:14:25;;;;;;;15.45;8.80;;;;;;;20.92;63.38;97384.94;10290704;28;20595;-56
2022/08/17 21:19:39;;;;;;;13.70;8.50;;;;;;;20.85;63.52;97381.75;10290011;28;20096;-55
2022/08/17 21:25:08;;;;;;;12.63;9.23;;;;;;;20.79;63.78;97386.44;10290443;28;20608;-55
2022/08/17 21:30:46;;;;;;;10.15;9.02;;;;;;;20.61;64.54;97388.19;10288503;28;20088;-56
2022/08/17 21:35:54;;;;;;;11.45;8.80;;;;;;;20.56;65.21;97393.66;10291055;28;20077;-57
2022/08/17 21:40:53;;;;;;;11.20;8.20;;;;;;;20.50;65.06;97391.34;10288961;28;20070;-55
2022/08/17 21:46:00;;;;;;;13.05;9.70;;;;;;;20.43;65.72;97395.19;10288228;28;20123;-56
2022/08/17 21:51:09;;;;;;;14.13;9.82;;;;;;;20.32;66.40;97400.06;10290056;28;20064;-56
2022/08/17 21:56:11;;;;;;;14.73;9.95;;;;;;;20.17;66.77;97399.84;10289420;28;20092;-55
2022/08/17 22:01:17;;;;;;;14.93;10.00;;;;;;;20.12;66.96;97409.72;10287720;28;20497;-56
2022/08/17 22:06:27;;;;;;;12.13;10.43;;;;;;;20.05;67.07;97405.66;10289012;28;20156;-56
2022/08/17 22:11:26;;;;;;;10.88;9.55;;;;;;;19.99;67.41;97405.94;10286283;28;20080;-56
2022/08/17 22:16:25;;;;;;;12.93;9.20;;;;;;;19.92;67.53;97401.84;10285820;28;20040;-56
2022/08/17 22:21:25;;;;;;;11.52;8.98;;;;;;;19.90;67.86;97403.69;10286147;28;20112;-56
2022/08/17 22:26:45;;;;;;;13.43;9.75;;;;;;;19.83;68.39;97389.94;10287720;28;20061;-56
2022/08/17 22:32:02;;;;;;;11.07;8.93;;;;;;;19.78;68.99;97398.03;10282125;28;20543;-56
2022/08/17 22:37:27;;;;;;;12.55;9.50;;;;;;;19.72;69.71;97402.72;10288516;28;20531;-56
2022/08/17 22:42:27;;;;;;;14.30;9.18;;;;;;;19.68;70.17;97402.00;10287948;28;20061;-56
2022/08/17 22:47:38;;;;;;;14.43;8.95;;;;;;;19.65;70.13;97407.41;10288662;28;20065;-56
2022/08/17 23:03:26;;;;;;;16.42;10.32;;;;;;;19.54;71.00;97391.19;10288909;28;20065;-56
2022/08/17 23:08:25;;;;;;;15.07;9.65;;;;;;;19.51;71.16;97397.44;10288406;28;20492;-56
2022/08/17 23:13:25;;;;;;;15.10;10.88;;;;;;;19.47;71.78;97395.00;10287312;28;20643;-56
2022/08/17 23:18:26;;;;;;;14.20;10.20;;;;;;;19.42;72.04;97392.56;10287537;28;20519;-56
2022/08/17 23:23:25;;;;;;;13.70;10.35;;;;;;;19.31;73.10;97389.53;10288739;28;20108;-56
2022/08/17 23:28:24;;;;;;;14.93;10.25;;;;;;;19.17;74.36;97388.31;10287845;28;20057;-56
2022/08/17 23:33:28;;;;;;;12.55;10.18;;;;;;;19.05;74.79;97380.09;10287733;28;20033;-57
2022/08/17 23:38:27;;;;;;;13.85;10.95;;;;;;;19.05;74.85;97380.09;10288518;28;20070;-56
2022/08/17 23:43:28;;;;;;;14.05;10.52;;;;;;;19.06;74.63;97379.16;10250833;28;20062;-57
2022/08/17 23:48:27;;;;;;;11.82;9.75;;;;;;;19.07;74.92;97380.88;10248133;28;20073;-55
2022/08/17 23:53:33;;;;;;;12.90;10.60;;;;;;;19.05;75.06;97378.31;10249993;28;20093;-55
2022/08/17 23:58:32;;;;;;;12.32;9.70;;;;;;;18.97;75.67;97378.63;10254506;28;20074;-56
